Time;durP1;ratioP1;P1;durP2;ratioP2;P2;SDS_P1;SDS_P2;PMS_P1;PMS_P2;Temp;Humidity;BMP_temperature;BMP_pressure;BME280_temperature;BME280_humidity;BME280_pressure;Samples;Min_cycle;Max_cycle;Signal;HPM_P1;HPM_P2
2023/02/01 00:24:01;;;;;;;11.25;2.20;;;6.60;94.00;;;;;;2287257;22;20127;-62
2023/02/01 00:26:32;;;;;;;22.63;2.70;;;6.60;94.00;;;;;;5021518;28;20029;-63
2023/02/01 00:28:59;;;;;;;22.85;2.58;;;6.70;94.10;;;;;;5028098;28;20036;-65
2023/02/01 00:31:24;;;;;;;9.70;1.88;;;6.70;93.90;;;;;;5004431;28;20768;-63
2023/02/01 00:33:50;;;;;;;14.68;1.88;;;6.80;94.00;;;;;;5001478;28;20037;-63
2023/02/01 00:36:17;;;;;;;10.20;2.08;;;6.80;93.60;;;;;;4990152;28;20579;-64
2023/02/01 00:38:43;;;;;;;17.95;2.20;;;6.90;94.10;;;;;;4987959;28;20038;-64
2023/02/01 00:41:20;;;;;;;9.48;1.60;;;6.80;95.20;;;;;;4990490;28;20080;-64
2023/02/01 00:43:47;;;;;;;12.27;2.17;;;6.70;95.90;;;;;;4979722;28;20034;-63
2023/02/01 00:46:15;;;;;;;14.82;1.90;;;6.50;95.90;;;;;;4977930;28;20052;-63
2023/02/01 00:48:41;;;;;;;12.43;2.17;;;6.50;96.20;;;;;;5004118;28;20479;-63
2023/02/01 00:51:12;;;;;;;14.93;1.77;;;6.40;96.40;;;;;;4991373;28;20041;-63
2023/02/01 00:53:39;;;;;;;14.60;2.03;;;6.30;96.50;;;;;;5004043;28;20030;-64
2023/02/01 00:56:06;;;;;;;22.23;2.72;;;6.20;96.50;;;;;;4978523;28;20133;-64
2023/02/01 00:58:32;;;;;;;18.92;2.40;;;6.20;96.70;;;;;;4998594;28;20026;-64
2023/02/01 01:01:07;;;;;;;16.15;1.85;;;6.20;96.50;;;;;;4977271;28;20026;-64
2023/02/01 01:03:36;;;;;;;12.80;2.03;;;6.20;96.50;;;;;;4990935;28;20026;-64
2023/02/01 01:06:05;;;;;;;12.80;1.80;;;6.20;96.40;;;;;;4978238;28;20092;-63
2023/02/01 01:08:31;;;;;;;9.48;2.10;;;6.20;96.10;;;;;;4984460;28;20033;-63
2023/02/01 01:10:57;;;;;;;8.68;1.70;;;6.20;96.00;;;;;;4995734;28;20032;-63
2023/02/01 01:13:23;;;;;;;10.88;1.80;;;6.20;95.80;;;;;;4978773;28;20038;-63
2023/02/01 01:15:48;;;;;;;11.73;2.25;;;6.20;95.80;;;;;;4995814;28;20037;-63
2023/02/01 01:18:14;;;;;;;18.75;2.60;;;6.20;95.40;;;;;;4999691;28;20027;-63
2023/02/01 01:20:41;;;;;;;14.45;1.70;;;6.30;95.60;;;;;;5000924;28;20022;-63
2023/02/01 01:23:08;;;;;;;11.50;2.42;;;6.30;95.00;;;;;;4977006;28;20026;-63
2023/02/01 01:25:38;;;;;;;12.40;2.42;;;6.20;94.80;;;;;;4995817;28;20026;-63
2023/02/01 01:28:04;;;;;;;12.13;2.78;;;6.20;94.90;;;;;;4995658;28;20108;-63
2023/02/01 01:30:30;;;;;;;12.88;2.15;;;6.30;94.70;;;;;;4998362;28;20485;-63
2023/02/01 01:32:56;;;;;;;11.43;1.92;;;6.30;94.50;;;;;;4995548;28;20026;-63
2023/02/01 01:35:22;;;;;;;13.32;2.03;;;6.20;94.50;;;;;;4979053;28;20046;-64
2023/02/01 01:37:47;;;;;;;13.48;2.20;;;6.30;94.70;;;;;;4977838;28;20022;-64
2023/02/01 01:40:13;;;;;;;11.90;2.22;;;6.30;94.80;;;;;;4977511;28;20026;-63
2023/02/01 01:42:41;;;;;;;11.15;1.75;;;6.30;94.40;;;;;;4983274;28;20022;-64
2023/02/01 01:45:36;;;;;;;11.13;2.28;;;6.30;94.50;;;;;;4981165;28;20117;-64
2023/02/01 01:48:09;;;;;;;7.93;1.90;;;6.30;94.50;;;;;;4966787;28;20705;-64
2023/02/01 01:50:48;;;;;;;11.07;2.42;;;6.30;94.50;;;;;;4980927;28;20504;-64
2023/02/01 01:53:18;;;;;;;10.52;2.28;;;6.40;94.50;;;;;;4977391;28;20034;-64
2023/02/01 01:55:45;;;;;;;11.95;2.05;;;6.30;94.70;;;;;;4998737;28;20574;-65
2023/02/01 01:58:18;;;;;;;11.90;1.88;;;6.40;94.80;;;;;;4978546;28;20030;-64
2023/02/01 02:00:46;;;;;;;12.95;2.75;;;6.40;94.60;;;;;;4974251;28;20173;-64
2023/02/01 02:03:20;;;;;;;10.88;1.90;;;6.30;94.40;;;;;;4976368;28;20041;-64
2023/02/01 02:05:49;;;;;;;14.68;2.58;;;6.30;94.70;;;;;;4996812;28;20038;-64
2023/02/01 02:08:14;;;;;;;11.82;1.90;;;6.30;94.60;;;;;;4967329;28;20088;-64
2023/02/01 02:10:59;;;;;;;20.00;2.10;;;6.30;94.60;;;;;;5026228;28;20115;-64
2023/02/01 02:13:32;;;;;;;10.57;1.70;;;6.30;94.50;;;;;;5014772;28;20028;-64
2023/02/01 02:16:06;;;;;;;15.65;3.05;;;6.30;94.70;;;;;;5017755;28;20128;-64
2023/02/01 02:18:52;;;;;;;17.98;2.05;;;6.30;94.80;;;;;;5021225;28;20021;-64
2023/02/01 02:21:47;;;;;;;16.85;1.70;;;6.40;94.90;;;;;;5032138;28;20057;-64
2023/02/01 02:24:16;;;;;;;10.93;1.70;;;6.40;94.70;;;;;;5020405;28;20175;-65
2023/02/01 02:27:05;;;;;;;12.93;1.70;;;6.50;94.40;;;;;;5029927;28;20036;-64
2023/02/01 02:30:09;;;;;;;11.95;1.92;;;6.50;94.50;;;;;;5029342;28;20782;-64
2023/02/01 02:33:00;;;;;;;16.95;2.70;;;6.60;94.40;;;;;;5035540;28;20041;-64
2023/02/01 02:35:38;;;;;;;15.77;2.10;;;6.60;94.30;;;;;;4995890;28;20036;-64
2023/02/01 02:38:41;;;;;;;15.05;2.50;;;6.60;94.30;;;;;;5021872;28;20028;-63
2023/02/01 02:41:13;;;;;;;10.80;2.30;;;6.70;94.50;;;;;;5020460;28;20108;-64
2023/02/01 02:49:43;;;;;;;9.93;2.20;;;6.80;94.10;;;;;;5034726;28;20090;-64
2023/02/01 02:54:59;;;;;;;14.27;2.17;;;6.80;93.60;;;;;;5020811;28;19912;-64
2023/02/01 03:05:53;;;;;;;13.63;1.92;;;6.80;93.40;;;;;;5010777;28;20049;-64
2023/02/01 03:08:21;;;;;;;19.55;2.15;;;6.70;93.40;;;;;;5013605;28;20037;-64
2023/02/01 03:10:57;;;;;;;19.90;2.35;;;6.60;93.60;;;;;;5014080;28;20029;-64
2023/02/01 03:13:50;;;;;;;11.30;2.38;;;6.70;93.80;;;;;;5032867;28;20033;-64
2023/02/01 03:16:40;;;;;;;9.27;1.92;;;6.70;93.80;;;;;;5030794;28;20045;-64
2023/02/01 03:19:49;;;;;;;15.85;2.28;;;6.70;93.80;;;;;;5015466;28;20438;-64
2023/02/01 03:22:21;;;;;;;12.02;2.10;;;6.70;93.60;;;;;;4989926;28;20035;-64
2023/02/01 03:24:53;;;;;;;15.15;2.05;;;6.70;93.70;;;;;;4978973;28;20041;-64
2023/02/01 03:27:26;;;;;;;15.05;2.35;;;6.60;93.40;;;;;;4995627;28;20079;-64
2023/02/01 03:30:22;;;;;;;16.08;2.63;;;6.60;93.60;;;;;;5011909;28;20025;-64
2023/02/01 03:33:00;;;;;;;13.52;2.35;;;6.70;93.80;;;;;;5017044;28;20029;-64
2023/02/01 03:35:29;;;;;;;13.88;1.83;;;6.60;93.80;;;;;;5010581;28;20025;-64
2023/02/01 03:38:11;;;;;;;14.55;1.90;;;6.60;93.70;;;;;;5011788;28;20033;-64
2023/02/01 03:40:39;;;;;;;9.82;1.60;;;6.70;93.80;;;;;;5015375;28;20967;-64
2023/02/01 03:43:09;;;;;;;13.02;1.60;;;6.70;93.80;;;;;;5031232;28;20060;-64
2023/02/01 03:45:42;;;;;;;15.65;2.53;;;6.70;93.80;;;;;;5018841;28;20021;-63
2023/02/01 03:48:10;;;;;;;10.65;1.90;;;6.80;93.70;;;;;;5017859;28;20033;-64
2023/02/01 03:50:43;;;;;;;11.93;2.08;;;6.80;93.60;;;;;;5021100;28;20147;-64
2023/02/01 03:53:14;;;;;;;18.25;2.55;;;6.80;93.50;;;;;;4993116;28;20022;-64
2023/02/01 03:55:44;;;;;;;18.60;2.92;;;6.90;93.20;;;;;;5029422;28;20037;-64
2023/02/01 03:58:14;;;;;;;16.05;3.60;;;6.90;93.30;;;;;;5010176;28;20025;-64
2023/02/01 04:00:40;;;;;;;10.90;2.08;;;6.90;93.30;;;;;;5013854;28;20488;-64
2023/02/01 04:03:07;;;;;;;21.63;2.78;;;7.00;93.30;;;;;;5034504;28;20037;-64
2023/02/01 04:05:34;;;;;;;19.90;2.25;;;7.00;93.30;;;;;;5021345;28;20083;-64
2023/02/01 04:08:04;;;;;;;19.23;2.58;;;7.10;93.20;;;;;;5009109;28;20083;-64
2023/02/01 04:10:30;;;;;;;13.90;2.28;;;7.10;93.10;;;;;;5029822;28;20472;-64
2023/02/01 04:12:56;;;;;;;20.90;2.90;;;7.10;93.30;;;;;;5030668;28;20036;-64
2023/02/01 04:15:22;;;;;;;19.17;2.75;;;7.10;93.00;;;;;;5029579;28;20033;-64
2023/02/01 04:17:48;;;;;;;9.75;2.38;;;7.10;93.00;;;;;;5013466;28;20025;-64
2023/02/01 04:20:13;;;;;;;18.35;3.20;;;7.00;93.20;;;;;;5030891;28;20041;-64
2023/02/01 04:22:39;;;;;;;21.77;2.55;;;7.00;93.30;;;;;;5034782;28;20029;-64
2023/02/01 04:25:05;;;;;;;16.77;2.67;;;7.10;93.20;;;;;;5030239;28;20083;-64
2023/02/01 04:27:32;;;;;;;11.02;1.75;;;7.10;93.30;;;;;;5035214;28;20029;-64
2023/02/01 04:29:57;;;;;;;18.80;3.10;;;7.10;93.20;;;;;;5036674;28;20072;-64
2023/02/01 04:32:23;;;;;;;17.02;2.17;;;7.10;92.90;;;;;;5036105;28;20648;-64
2023/02/01 04:34:49;;;;;;;12.85;2.53;;;7.00;93.10;;;;;;5031880;28;20029;-64
2023/02/01 04:37:14;;;;;;;16.52;2.70;;;7.00;93.30;;;;;;5033170;28;20083;-64
2023/02/01 04:39:40;;;;;;;18.30;2.83;;;7.10;93.00;;;;;;5033166;28;20363;-64
2023/02/01 04:42:06;;;;;;;16.05;2.45;;;7.10;93.10;;;;;;5028885;28;20040;-64
2023/02/01 04:44:32;;;;;;;18.13;2.50;;;7.10;93.10;;;;;;5034002;28;20040;-64
2023/02/01 04:46:58;;;;;;;15.57;2.85;;;7.00;93.10;;;;;;5032409;28;20029;-64
2023/02/01 04:49:26;;;;;;;16.52;2.72;;;7.10;93.30;;;;;;5034491;28;20115;-64
2023/02/01 04:51:51;;;;;;;19.52;3.13;;;7.10;93.00;;;;;;5037507;28;20105;-64
2023/02/01 04:54:17;;;;;;;10.38;2.40;;;7.20;92.80;;;;;;5034382;28;20033;-64
2023/02/01 04:56:43;;;;;;;10.57;1.95;;;7.10;92.90;;;;;;5035809;28;20033;-64
2023/02/01 04:59:11;;;;;;;10.80;2.00;;;7.10;92.90;;;;;;5035044;28;20686;-64
2023/02/01 05:01:37;;;;;;;9.15;1.83;;;7.00;92.90;;;;;;5033016;28;20511;-64
2023/02/01 05:04:03;;;;;;;14.85;2.38;;;7.00;93.20;;;;;;5030210;28;20033;-64
2023/02/01 05:06:28;;;;;;;17.45;2.53;;;7.00;93.40;;;;;;5036268;28;20048;-64
2023/02/01 05:08:54;;;;;;;17.20;2.70;;;7.00;93.20;;;;;;5034944;28;20037;-64
2023/02/01 05:14:04;;;;;;;15.38;2.67;;;7.10;93.20;;;;;;5034234;28;20791;-64
2023/02/01 05:16:31;;;;;;;15.32;2.30;;;7.20;93.00;;;;;;5035399;28;20037;-64
2023/02/01 05:18:56;;;;;;;15.95;2.28;;;7.10;92.80;;;;;;5032044;28;20068;-64
2023/02/01 05:21:22;;;;;;;17.88;2.20;;;7.10;93.00;;;;;;5029947;28;20767;-64
2023/02/01 05:26:32;;;;;;;16.23;1.98;;;7.00;93.20;;;;;;5028742;28;20068;-64
2023/02/01 05:28:58;;;;;;;15.35;2.35;;;6.80;93.80;;;;;;5034554;28;20128;-64
2023/02/01 05:31:24;;;;;;;14.73;2.10;;;6.70;94.10;;;;;;5040952;28;20033;-64
2023/02/01 05:33:49;;;;;;;18.55;2.70;;;6.80;94.10;;;;;;5031519;28;20033;-64
2023/02/01 05:36:15;;;;;;;17.08;2.63;;;6.80;94.00;;;;;;5032849;28;20099;-64
2023/02/01 05:38:41;;;;;;;15.43;2.38;;;6.80;93.90;;;;;;5021970;28;20029;-65
2023/02/01 05:41:07;;;;;;;19.60;3.97;;;6.90;93.90;;;;;;5034592;28;20028;-64
2023/02/01 05:43:33;;;;;;;15.45;2.22;;;7.00;93.90;;;;;;5024638;28;20029;-64
2023/02/01 05:45:59;;;;;;;11.32;2.22;;;7.10;93.40;;;;;;5028868;28;20061;-64
2023/02/01 05:48:25;;;;;;;12.73;2.72;;;6.90;93.50;;;;;;5036126;28;20297;-64
2023/02/01 05:50:51;;;;;;;17.65;2.42;;;6.90;93.70;;;;;;5034366;28;20130;-64
2023/02/01 05:53:16;;;;;;;19.38;2.15;;;6.90;93.60;;;;;;5035580;28;20043;-64
2023/02/01 05:55:42;;;;;;;13.05;2.13;;;7.00;93.50;;;;;;5036561;28;20533;-64
2023/02/01 05:58:08;;;;;;;13.02;2.95;;;6.90;93.20;;;;;;5036164;28;20020;-64
2023/02/01 06:00:34;;;;;;;15.73;2.75;;;6.80;93.70;;;;;;5039306;28;20821;-64
2023/02/01 06:03:00;;;;;;;9.68;2.00;;;6.90;93.80;;;;;;5031269;28;20030;-64
2023/02/01 06:05:26;;;;;;;23.10;2.75;;;6.90;93.80;;;;;;5035421;28;20440;-64
2023/02/01 06:07:52;;;;;;;11.90;2.85;;;7.00;93.70;;;;;;5036422;28;20099;-64
2023/02/01 06:10:18;;;;;;;14.55;2.53;;;7.00;93.90;;;;;;5035535;28;20048;-64
2023/02/01 06:12:47;;;;;;;18.67;2.33;;;7.00;93.60;;;;;;5036552;28;20136;-64
2023/02/01 06:15:17;;;;;;;9.40;2.85;;;7.00;93.50;;;;;;5037185;28;20492;-64
2023/02/01 06:17:46;;;;;;;17.58;2.97;;;7.00;93.60;;;;;;5033923;28;20028;-64
2023/02/01 06:20:14;;;;;;;13.02;2.00;;;6.90;93.50;;;;;;5037479;28;20386;-64
2023/02/01 06:22:40;;;;;;;10.32;1.67;;;6.90;93.50;;;;;;5032278;28;20039;-64
2023/02/01 06:25:08;;;;;;;15.45;1.90;;;6.80;93.60;;;;;;5019766;28;20041;-64
2023/02/01 06:27:35;;;;;;;19.45;3.17;;;6.80;93.90;;;;;;5033302;28;20033;-64
2023/02/01 06:30:02;;;;;;;17.67;2.35;;;6.80;93.80;;;;;;5035030;28;20032;-64
2023/02/01 06:32:28;;;;;;;17.35;3.28;;;6.80;93.70;;;;;;5014941;28;20640;-64
2023/02/01 06:34:55;;;;;;;13.20;3.30;;;6.80;93.70;;;;;;5030996;28;20039;-64
2023/02/01 06:37:22;;;;;;;12.73;2.95;;;6.70;93.90;;;;;;5034677;28;20120;-64
2023/02/01 06:39:48;;;;;;;15.95;4.88;;;6.80;94.00;;;;;;5031041;28;20684;-64
2023/02/01 06:42:15;;;;;;;18.73;2.92;;;6.70;94.20;;;;;;5014910;28;20029;-64
2023/02/01 06:44:41;;;;;;;15.15;2.75;;;6.70;93.90;;;;;;5033604;28;20381;-64
2023/02/01 06:47:06;;;;;;;14.40;2.20;;;6.80;94.00;;;;;;5033102;28;20041;-65
2023/02/01 06:49:32;;;;;;;15.68;2.72;;;6.70;93.80;;;;;;5028339;28;20044;-64
2023/02/01 06:52:00;;;;;;;17.27;2.72;;;6.70;94.00;;;;;;5030016;28;20036;-65
2023/02/01 06:54:26;;;;;;;20.60;3.03;;;6.70;93.80;;;;;;5024168;28;20029;-64
2023/02/01 06:56:52;;;;;;;8.63;1.73;;;6.80;94.00;;;;;;5036306;28;20025;-64
2023/02/01 06:59:18;;;;;;;12.90;2.38;;;6.80;93.90;;;;;;5034902;28;20024;-64
2023/02/01 07:01:44;;;;;;;19.80;3.33;;;6.80;93.90;;;;;;5035081;28;20651;-64
2023/02/01 07:04:12;;;;;;;11.20;2.38;;;6.80;94.00;;;;;;5032477;28;20060;-64
2023/02/01 07:06:39;;;;;;;16.58;2.40;;;6.80;94.40;;;;;;5028904;28;20041;-64
2023/02/01 07:09:06;;;;;;;19.77;3.95;;;6.80;94.20;;;;;;5040205;28;20052;-65
2023/02/01 07:11:32;;;;;;;25.17;4.28;;;6.80;94.70;;;;;;5031659;28;20112;-65
2023/02/01 07:13:58;;;;;;;17.83;3.90;;;6.80;94.80;;;;;;5032032;28;20112;-65
2023/02/01 07:16:24;;;;;;;20.75;4.72;;;6.90;95.20;;;;;;5034460;28;20028;-65
2023/02/01 07:18:51;;;;;;;23.52;5.10;;;6.90;95.10;;;;;;5035660;28;20040;-66
2023/02/01 07:21:18;;;;;;;13.32;2.03;;;6.70;95.30;;;;;;5034581;28;20049;-64
2023/02/01 07:23:44;;;;;;;16.33;3.25;;;6.70;95.90;;;;;;5033172;28;20029;-65
2023/02/01 07:26:14;;;;;;;23.60;3.80;;;6.50;96.40;;;;;;5032190;28;20036;-65
2023/02/01 07:28:41;;;;;;;16.95;2.85;;;6.40;97.60;;;;;;5033307;28;20593;-65
2023/02/01 07:31:09;;;;;;;18.90;3.75;;;6.20;98.10;;;;;;5033285;28;20029;-65
2023/02/01 07:33:35;;;;;;;21.08;5.00;;;6.30;98.60;;;;;;5036992;28;20041;-65
2023/02/01 07:36:06;;;;;;;10.00;2.92;;;6.30;98.90;;;;;;5024311;28;20135;-65
2023/02/01 07:38:32;;;;;;;17.55;2.85;;;6.30;98.80;;;;;;5035188;28;20035;-65
2023/02/01 07:41:03;;;;;;;15.60;3.13;;;6.30;99.00;;;;;;5034494;28;20021;-65
2023/02/01 07:43:29;;;;;;;9.43;2.47;;;6.20;99.20;;;;;;5033147;28;20852;-64
2023/02/01 07:45:56;;;;;;;14.35;2.53;;;6.10;99.70;;;;;;5031467;28;20196;-65
2023/02/01 07:48:23;;;;;;;9.40;2.47;;;6.10;99.90;;;;;;5027251;28;20046;-65
2023/02/01 07:50:58;;;;;;;14.63;2.97;;;6.10;99.90;;;;;;5035585;28;20036;-64
2023/02/01 07:53:24;;;;;;;11.88;2.70;;;6.20;99.90;;;;;;5036836;28;20063;-65
2023/02/01 07:55:49;;;;;;;12.68;2.80;;;6.10;99.90;;;;;;5039664;28;20119;-65
2023/02/01 07:58:15;;;;;;;11.55;2.20;;;6.20;99.90;;;;;;5036911;28;20033;-68
2023/02/01 08:03:25;;;;;;;12.50;2.75;;;6.20;99.90;;;;;;5041293;28;20048;-65
2023/02/01 08:05:55;;;;;;;14.57;2.80;;;6.20;99.90;;;;;;5036176;28;20034;-65
2023/02/01 08:08:21;;;;;;;8.48;2.10;;;6.30;99.90;;;;;;5038867;28;20025;-64
2023/02/01 08:10:47;;;;;;;9.38;2.60;;;6.30;99.90;;;;;;5038900;28;20029;-65
2023/02/01 08:13:14;;;;;;;14.07;3.42;;;6.40;99.90;;;;;;5043206;28;20052;-65
2023/02/01 08:15:40;;;;;;;14.00;2.67;;;6.00;99.90;;;;;;5038495;28;20473;-67
2023/02/01 08:18:06;;;;;;;13.40;2.60;;;6.00;99.90;;;;;;5039712;28;20099;-65
2023/02/01 08:20:34;;;;;;;9.02;3.30;;;6.00;99.90;;;;;;5043416;28;20029;-65
2023/02/01 08:22:59;;;;;;;8.10;2.75;;;6.10;99.90;;;;;;5037561;28;20035;-65
2023/02/01 08:25:25;;;;;;;12.70;2.22;;;6.20;99.90;;;;;;5040545;28;20045;-65
2023/02/01 08:27:51;;;;;;;11.85;2.55;;;5.90;99.90;;;;;;5025989;28;20036;-67
2023/02/01 08:30:17;;;;;;;6.43;1.60;;;5.90;99.90;;;;;;5037566;28;20032;-68
2023/02/01 08:32:43;;;;;;;6.28;1.75;;;5.90;99.90;;;;;;5037724;28;20057;-65
2023/02/01 08:35:09;;;;;;;10.38;2.28;;;6.00;99.90;;;;;;5033526;28;20120;-65
2023/02/01 08:37:36;;;;;;;7.70;2.00;;;6.10;99.90;;;;;;5034537;28;20033;-65
2023/02/01 08:40:05;;;;;;;6.47;2.28;;;6.10;99.90;;;;;;5035905;28;20063;-65
2023/02/01 08:45:17;;;;;;;6.53;2.03;;;6.20;99.90;;;;;;5036353;28;20103;-65
2023/02/01 08:47:42;;;;;;;4.05;1.48;;;6.20;99.90;;;;;;5037616;28;20035;-65
2023/02/01 08:50:09;;;;;;;6.13;1.35;;;6.30;99.90;;;;;;5040064;28;20480;-65
2023/02/01 08:52:35;;;;;;;4.55;1.40;;;6.30;99.90;;;;;;5040630;28;20112;-65
2023/02/01 08:55:01;;;;;;;2.58;1.20;;;6.30;99.90;;;;;;5036721;28;20620;-64
2023/02/01 08:57:27;;;;;;;6.72;2.10;;;6.30;99.90;;;;;;5036282;28;20029;-65
2023/02/01 08:59:53;;;;;;;5.03;2.17;;;6.30;99.90;;;;;;5032474;28;20017;-69
2023/02/01 09:02:19;;;;;;;7.32;2.00;;;6.40;99.90;;;;;;5029567;28;20029;-65
2023/02/01 09:04:44;;;;;;;3.40;1.60;;;6.40;99.90;;;;;;5015166;28;20033;-65
2023/02/01 09:07:12;;;;;;;7.20;2.60;;;6.40;99.90;;;;;;5032165;28;20041;-65
2023/02/01 09:09:39;;;;;;;7.38;3.00;;;6.30;99.90;;;;;;5036129;28;20104;-65
2023/02/01 09:12:05;;;;;;;3.95;1.40;;;6.40;99.90;;;;;;5040616;28;20024;-65
2023/02/01 09:14:31;;;;;;;5.93;1.80;;;6.40;99.90;;;;;;5038735;28;20468;-65
2023/02/01 09:16:57;;;;;;;7.43;1.73;;;6.50;99.90;;;;;;5044289;28;20056;-65
2023/02/01 09:19:22;;;;;;;4.18;1.27;;;6.40;99.90;;;;;;5043638;28;20119;-66
2023/02/01 09:21:48;;;;;;;4.28;1.10;;;6.50;99.90;;;;;;5036512;28;20492;-68
2023/02/01 09:24:14;;;;;;;5.55;1.40;;;6.50;99.90;;;;;;5038475;28;20722;-69
2023/02/01 09:26:40;;;;;;;5.85;1.20;;;6.50;99.90;;;;;;5035759;28;20025;-67
2023/02/01 09:29:12;;;;;;;5.32;1.20;;;6.50;99.90;;;;;;5035261;28;20041;-67
2023/02/01 09:31:39;;;;;;;6.47;1.55;;;6.50;99.90;;;;;;5033626;28;20044;-66
2023/02/01 09:34:06;;;;;;;4.53;1.52;;;6.50;99.90;;;;;;5037117;28;20029;-65
2023/02/01 09:36:32;;;;;;;4.13;1.60;;;6.50;99.90;;;;;;5036409;28;20029;-65
2023/02/01 09:38:59;;;;;;;4.82;1.23;;;6.60;99.90;;;;;;5038011;28;20032;-65
2023/02/01 09:41:47;;;;;;;3.30;1.15;;;6.60;99.90;;;;;;5015587;28;20025;-65
2023/02/01 09:44:18;;;;;;;1.63;0.85;;;6.60;99.80;;;;;;5036543;28;20037;-65
2023/02/01 09:46:45;;;;;;;0.98;0.65;;;6.70;99.80;;;;;;5040456;28;20475;-65
2023/02/01 09:49:25;;;;;;;2.03;0.55;;;6.70;99.60;;;;;;5039497;28;20032;-65
2023/02/01 09:51:52;;;;;;;2.53;0.55;;;6.70;99.50;;;;;;5038294;28;20064;-65
2023/02/01 09:54:25;;;;;;;1.77;0.70;;;6.70;99.50;;;;;;5040261;28;20033;-65
2023/02/01 09:57:06;;;;;;;5.05;0.82;;;6.70;99.50;;;;;;5025716;28;20040;-65
2023/02/01 09:59:44;;;;;;;4.63;0.80;;;6.70;99.70;;;;;;5037813;28;20031;-65
2023/02/01 10:02:25;;;;;;;4.05;1.20;;;6.60;99.90;;;;;;5036520;28;20120;-65
2023/02/01 10:04:57;;;;;;;3.90;0.80;;;6.70;99.90;;;;;;5041701;28;20033;-65
2023/02/01 10:07:28;;;;;;;3.40;0.80;;;6.80;99.90;;;;;;5042113;28;20082;-65
2023/02/01 10:10:00;;;;;;;3.85;0.98;;;6.80;99.90;;;;;;5037003;28;20052;-66
2023/02/01 10:12:31;;;;;;;5.63;0.98;;;6.80;99.90;;;;;;5039077;28;20049;-65
2023/02/01 10:15:06;;;;;;;4.65;1.10;;;6.90;99.90;;;;;;5023929;28;20027;-65
2023/02/01 10:17:44;;;;;;;4.93;1.00;;;6.90;99.80;;;;;;5037220;28;20109;-65
2023/02/01 10:20:26;;;;;;;3.20;0.75;;;6.90;99.90;;;;;;5032954;28;20459;-65
2023/02/01 10:23:13;;;;;;;2.80;0.80;;;7.00;99.60;;;;;;5035522;28;20104;-65
2023/02/01 10:25:55;;;;;;;2.92;0.52;;;7.10;99.30;;;;;;5036057;28;20111;-66
2023/02/01 10:28:23;;;;;;;6.40;1.05;;;7.00;99.00;;;;;;5034268;28;20532;-66
2023/02/01 10:30:56;;;;;;;5.03;1.02;;;7.10;99.10;;;;;;5039705;28;20365;-67
2023/02/01 10:33:27;;;;;;;4.38;0.75;;;7.10;99.10;;;;;;5034026;28;20033;-65
2023/02/01 10:36:19;;;;;;;2.10;0.70;;;7.30;98.90;;;;;;5038067;28;20040;-65
2023/02/01 10:38:46;;;;;;;4.03;1.58;;;7.30;98.70;;;;;;5035058;28;20033;-65
2023/02/01 10:41:29;;;;;;;5.43;1.40;;;7.50;98.30;;;;;;5039624;28;20032;-66
2023/02/01 10:43:58;;;;;;;6.63;1.88;;;7.40;97.80;;;;;;5034893;28;20103;-66
2023/02/01 10:46:25;;;;;;;5.07;2.53;;;7.50;98.60;;;;;;5033634;28;20826;-64
2023/02/01 10:48:55;;;;;;;9.68;1.60;;;7.50;97.90;;;;;;5035617;28;20047;-64
2023/02/01 10:51:35;;;;;;;6.53;1.48;;;7.50;98.10;;;;;;5035355;28;20666;-64
2023/02/01 10:54:15;;;;;;;7.20;1.90;;;7.60;98.40;;;;;;5032700;28;20025;-64
2023/02/01 10:56:45;;;;;;;6.18;1.10;;;7.80;98.10;;;;;;5038796;28;20060;-66
2023/02/01 10:59:24;;;;;;;4.20;2.50;;;8.00;97.70;;;;;;5033572;28;20527;-64
2023/02/01 11:01:59;;;;;;;7.28;2.50;;;8.30;97.10;;;;;;5034847;28;20104;-65
2023/02/01 11:04:26;;;;;;;10.05;3.38;;;9.00;95.70;;;;;;5021170;28;20033;-65
2023/02/01 11:07:23;;;;;;;10.82;2.50;;;9.10;93.70;;;;;;5036645;28;20032;-65
2023/02/01 11:09:54;;;;;;;7.28;1.70;;;9.00;94.30;;;;;;5035297;28;20033;-66
2023/02/01 11:12:33;;;;;;;7.28;1.88;;;8.90;94.90;;;;;;5036213;28;20090;-66
2023/02/01 11:15:03;;;;;;;7.43;1.45;;;8.80;94.80;;;;;;5033330;28;20039;-66
2023/02/01 11:17:35;;;;;;;4.43;1.42;;;8.60;95.30;;;;;;5037848;28;20037;-66
2023/02/01 11:20:15;;;;;;;5.72;1.60;;;8.60;95.40;;;;;;5039880;28;20035;-65
2023/02/01 11:22:54;;;;;;;11.93;4.18;;;8.50;95.90;;;;;;5033315;28;20036;-65
2023/02/01 11:25:21;;;;;;;7.00;1.58;;;8.60;96.00;;;;;;5035208;28;20043;-66
2023/02/01 11:27:51;;;;;;;5.60;1.13;;;8.70;95.50;;;;;;5037977;28;20029;-66
2023/02/01 11:30:22;;;;;;;6.47;1.33;;;8.80;94.80;;;;;;5037201;28;20033;-65
2023/02/01 11:32:50;;;;;;;4.85;1.20;;;8.80;95.10;;;;;;5038476;28;20068;-68
2023/02/01 11:35:20;;;;;;;9.07;1.52;;;8.80;95.10;;;;;;5032037;28;20037;-68
2023/02/01 11:37:54;;;;;;;6.40;1.70;;;8.80;94.70;;;;;;5033889;28;20055;-68
2023/02/01 11:40:26;;;;;;;9.20;1.88;;;8.80;94.80;;;;;;5032760;28;20033;-68
2023/02/01 11:43:12;;;;;;;5.63;0.80;;;8.70;94.70;;;;;;5032811;28;20063;-68
2023/02/01 11:45:39;;;;;;;9.77;1.30;;;8.50;95.20;;;;;;5033064;28;20115;-68
2023/02/01 11:48:09;;;;;;;13.60;1.63;;;8.50;95.40;;;;;;5031328;28;20041;-68
2023/02/01 11:50:39;;;;;;;7.22;1.27;;;8.50;96.00;;;;;;5015376;28;20983;-68
2023/02/01 11:53:20;;;;;;;12.18;2.40;;;8.80;95.60;;;;;;5019005;28;20032;-68
2023/02/01 11:56:07;;;;;;;9.18;1.92;;;8.90;94.80;;;;;;5028502;28;20037;-68
2023/02/01 11:59:02;;;;;;;8.00;1.88;;;8.90;94.50;;;;;;5035345;28;20031;-65
2023/02/01 12:01:38;;;;;;;9.05;1.90;;;9.00;94.00;;;;;;5035059;28;20044;-65
2023/02/01 12:04:22;;;;;;;5.75;1.27;;;9.10;93.00;;;;;;5034710;28;20044;-66
2023/02/01 12:06:49;;;;;;;5.32;2.20;;;9.10;93.50;;;;;;5031837;28;20165;-64
2023/02/01 12:09:25;;;;;;;17.38;3.65;;;9.20;93.50;;;;;;5028843;28;20068;-65
2023/02/01 12:12:18;;;;;;;12.85;3.47;;;9.30;93.50;;;;;;5033981;28;20826;-65
2023/02/01 12:15:09;;;;;;;10.82;3.63;;;9.40;92.30;;;;;;5030736;28;20740;-64
2023/02/01 12:17:36;;;;;;;10.05;3.10;;;9.30;91.60;;;;;;5032281;28;20035;-66
2023/02/01 12:20:27;;;;;;;10.57;2.10;;;9.30;92.00;;;;;;5018885;28;20082;-66
2023/02/01 12:23:04;;;;;;;11.73;2.30;;;9.20;92.00;;;;;;5032782;28;20872;-64
2023/02/01 12:25:33;;;;;;;12.57;2.90;;;9.10;92.40;;;;;;5032282;28;20025;-65
2023/02/01 12:28:19;;;;;;;9.98;2.08;;;9.10;92.40;;;;;;5031250;28;20036;-66
2023/02/01 12:31:08;;;;;;;31.33;9.43;;;9.10;92.00;;;;;;5036150;28;20036;-65
2023/02/01 12:33:40;;;;;;;16.00;3.40;;;9.20;92.20;;;;;;5035112;28;20112;-65
2023/02/01 12:36:43;;;;;;;21.83;5.65;;;9.00;92.10;;;;;;5026196;28;20139;-64
2023/02/01 12:39:31;;;;;;;16.05;4.95;;;8.90;92.00;;;;;;5033207;28;20049;-65
2023/02/01 12:42:00;;;;;;;16.50;5.43;;;8.90;92.30;;;;;;5032628;28;20029;-65
2023/02/01 12:44:36;;;;;;;27.90;9.05;;;8.90;92.90;;;;;;5038424;28;20059;-65
2023/02/01 12:47:14;;;;;;;7.10;2.30;;;8.80;92.60;;;;;;5038252;28;20029;-65
2023/02/01 12:50:05;;;;;;;50.85;15.15;;;8.80;92.80;;;;;;5038823;28;20064;-67
2023/02/01 12:52:50;;;;;;;11.98;3.10;;;8.70;93.20;;;;;;5035363;28;20035;-66
2023/02/01 12:55:24;;;;;;;36.85;15.68;;;8.80;93.50;;;;;;5037484;28;20127;-65
2023/02/01 12:58:16;;;;;;;10.45;1.90;;;8.70;92.80;;;;;;5037860;28;20044;-66
2023/02/01 13:00:50;;;;;;;7.00;1.45;;;8.70;93.10;;;;;;5032129;28;20120;-66
2023/02/01 13:03:22;;;;;;;9.63;1.35;;;8.70;93.00;;;;;;5033918;28;20143;-66
2023/02/01 13:05:58;;;;;;;5.28;1.42;;;8.70;93.20;;;;;;5033503;28;20036;-65
2023/02/01 13:08:34;;;;;;;6.15;2.50;;;8.60;93.20;;;;;;5037523;28;20484;-66
2023/02/01 13:11:13;;;;;;;7.85;1.38;;;8.50;93.60;;;;;;5034520;28;20667;-65
2023/02/01 13:13:52;;;;;;;5.60;1.58;;;8.60;93.50;;;;;;5032968;28;20056;-66
2023/02/01 13:16:30;;;;;;;9.30;2.25;;;8.70;93.20;;;;;;5033498;28;20044;-65
2023/02/01 13:19:29;;;;;;;7.97;1.65;;;8.60;93.10;;;;;;5038067;28;20033;-66
2023/02/01 13:22:15;;;;;;;8.05;1.38;;;8.60;93.40;;;;;;5034985;28;20467;-65
2023/02/01 13:24:50;;;;;;;;;;;8.70;93.10;;;;;;5034492;28;20706;-65
2023/02/01 13:27:17;;;;;;;9.88;1.42;;;8.80;92.90;;;;;;5036450;28;19990;-64
2023/02/01 13:30:11;;;;;;;7.63;1.80;;;8.70;92.80;;;;;;5033066;28;20098;-62
2023/02/01 13:32:52;;;;;;;7.57;2.00;;;8.70;93.10;;;;;;5030428;28;20041;-71
2023/02/01 13:35:46;;;;;;;9.05;3.00;;;8.80;93.10;;;;;;5031154;28;20071;-65
2023/02/01 13:38:33;;;;;;;10.70;2.38;;;8.90;92.90;;;;;;5034100;28;20060;-69
2023/02/01 13:41:17;;;;;;;9.82;2.20;;;8.80;92.80;;;;;;5035016;28;20055;-67
2023/02/01 13:43:47;;;;;;;15.20;4.30;;;8.80;92.70;;;;;;5032123;28;20497;-68
2023/02/01 13:46:15;;;;;;;10.75;2.30;;;8.70;93.30;;;;;;5017543;28;20792;-66
2023/02/01 13:48:52;;;;;;;11.10;2.35;;;8.40;94.00;;;;;;5031679;28;20029;-67
2023/02/01 13:51:32;;;;;;;8.88;2.70;;;8.40;94.20;;;;;;5036300;28;20584;-66
2023/02/01 13:53:58;;;;;;;11.73;2.25;;;8.30;94.60;;;;;;5034554;28;20400;-66
2023/02/01 13:56:25;;;;;;;13.60;3.25;;;8.30;95.00;;;;;;5031755;28;20035;-66
2023/02/01 13:58:51;;;;;;;15.38;3.53;;;8.30;95.00;;;;;;5032366;28;20029;-67
2023/02/01 14:01:23;;;;;;;10.55;2.58;;;8.30;94.70;;;;;;5030033;28;20408;-67
2023/02/01 14:03:56;;;;;;;15.52;6.47;;;8.30;95.50;;;;;;5034591;28;20116;-66